sensor_id;sensor_type;location;lat;lon;timestamp;pressure;altitude;pressure_sealevel;temperature;humidity
36798;BME280;22748;8.426;99.512;2022-08-19T00:00:12;100637.88;;;30.14;64.50
36798;BME280;22748;8.426;99.512;2022-08-19T00:02:44;100642.00;;;30.17;64.44
36798;BME280;22748;8.426;99.512;2022-08-19T00:05:16;100646.56;;;30.17;64.53
36798;BME280;22748;8.426;99.512;2022-08-19T00:07:46;100639.50;;;30.15;64.16
36798;BME280;22748;8.426;99.512;2022-08-19T00:10:21;100646.56;;;30.17;64.49
36798;BME280;22748;8.426;99.512;2022-08-19T00:12:52;100651.94;;;30.17;64.50
36798;BME280;22748;8.426;99.512;2022-08-19T00:15:24;100651.16;;;30.09;64.13
36798;BME280;22748;8.426;99.512;2022-08-19T00:17:54;100654.91;;;30.08;64.53
36798;BME280;22748;8.426;99.512;2022-08-19T00:20:24;100664.03;;;30.07;64.60
36798;BME280;22748;8.426;99.512;2022-08-19T00:22:54;100671.06;;;30.08;64.55
36798;BME280;22748;8.426;99.512;2022-08-19T00:25:26;100668.97;;;30.10;65.00
36798;BME280;22748;8.426;99.512;2022-08-19T00:27:58;100671.66;;;30.10;64.62
36798;BME280;22748;8.426;99.512;2022-08-19T00:30:30;100670.59;;;30.11;64.55
36798;BME280;22748;8.426;99.512;2022-08-19T00:33:00;100673.97;;;30.07;64.95
36798;BME280;22748;8.426;99.512;2022-08-19T00:35:31;100683.47;;;30.09;65.35
36798;BME280;22748;8.426;99.512;2022-08-19T00:38:02;100689.28;;;30.06;65.32
36798;BME280;22748;8.426;99.512;2022-08-19T00:40:33;100697.22;;;30.01;65.73
36798;BME280;22748;8.426;99.512;2022-08-19T00:43:10;100695.50;;;30.07;65.14
36798;BME280;22748;8.426;99.512;2022-08-19T00:45:42;100713.28;;;30.14;65.25
36798;BME280;22748;8.426;99.512;2022-08-19T00:48:12;100720.28;;;30.22;65.25
36798;BME280;22748;8.426;99.512;2022-08-19T00:50:43;100710.72;;;30.26;65.38
36798;BME280;22748;8.426;99.512;2022-08-19T00:53:15;100723.16;;;30.34;64.99
36798;BME280;22748;8.426;99.512;2022-08-19T00:55:47;100719.41;;;30.35;65.27
36798;BME280;22748;8.426;99.512;2022-08-19T00:58:22;100729.78;;;30.38;65.14
36798;BME280;22748;8.426;99.512;2022-08-19T01:00:59;100735.53;;;30.42;64.80
36798;BME280;22748;8.426;99.512;2022-08-19T01:03:30;100740.22;;;30.14;65.72
36798;BME280;22748;8.426;99.512;2022-08-19T01:06:00;100747.22;;;30.29;65.56
36798;BME280;22748;8.426;99.512;2022-08-19T01:08:34;100754.03;;;30.38;65.09
36798;BME280;22748;8.426;99.512;2022-08-19T01:11:09;100750.88;;;30.41;64.73
36798;BME280;22748;8.426;99.512;2022-08-19T01:13:40;100748.53;;;30.51;64.70
36798;BME280;22748;8.426;99.512;2022-08-19T01:16:12;100746.63;;;30.59;64.11
36798;BME280;22748;8.426;99.512;2022-08-19T01:18:46;100744.94;;;30.64;64.11
36798;BME280;22748;8.426;99.512;2022-08-19T01:21:24;100734.53;;;30.68;63.90
36798;BME280;22748;8.426;99.512;2022-08-19T01:24:08;100748.19;;;30.73;63.88
36798;BME280;22748;8.426;99.512;2022-08-19T01:26:46;100741.91;;;30.79;63.37
36798;BME280;22748;8.426;99.512;2022-08-19T01:29:26;100739.75;;;30.94;62.88
36798;BME280;22748;8.426;99.512;2022-08-19T01:31:57;100741.16;;;31.22;61.95
36798;BME280;22748;8.426;99.512;2022-08-19T01:34:29;100737.44;;;31.42;61.62
36798;BME280;22748;8.426;99.512;2022-08-19T01:37:07;100750.81;;;31.55;60.60
36798;BME280;22748;8.426;99.512;2022-08-19T01:39:43;100742.00;;;31.66;60.39
36798;BME280;22748;8.426;99.512;2022-08-19T01:42:13;100736.25;;;31.74;60.16
36798;BME280;22748;8.426;99.512;2022-08-19T01:44:43;100737.41;;;31.67;60.07
36798;BME280;22748;8.426;99.512;2022-08-19T01:47:15;100739.94;;;31.62;60.01
36798;BME280;22748;8.426;99.512;2022-08-19T01:49:45;100736.41;;;31.61;59.34
36798;BME280;22748;8.426;99.512;2022-08-19T01:52:15;100741.13;;;31.66;58.83
36798;BME280;22748;8.426;99.512;2022-08-19T01:54:48;100732.81;;;31.67;59.13
36798;BME280;22748;8.426;99.512;2022-08-19T01:57:19;100736.34;;;31.68;58.86
36798;BME280;22748;8.426;99.512;2022-08-19T01:59:49;100743.31;;;31.57;59.16
36798;BME280;22748;8.426;99.512;2022-08-19T02:02:21;100740.78;;;31.62;58.62
36798;BME280;22748;8.426;99.512;2022-08-19T02:04:52;100738.31;;;31.61;58.23
36798;BME280;22748;8.426;99.512;2022-08-19T02:07:22;100735.69;;;31.54;57.94
36798;BME280;22748;8.426;99.512;2022-08-19T02:09:54;100734.47;;;31.50;57.85
36798;BME280;22748;8.426;99.512;2022-08-19T02:12:25;100728.69;;;31.46;57.94
36798;BME280;22748;8.426;99.512;2022-08-19T02:14:55;100734.69;;;31.48;58.18
36798;BME280;22748;8.426;99.512;2022-08-19T02:17:25;100727.56;;;31.54;57.76
36798;BME280;22748;8.426;99.512;2022-08-19T02:19:56;100727.13;;;31.57;58.43
36798;BME280;22748;8.426;99.512;2022-08-19T02:22:27;100726.69;;;31.60;57.56
36798;BME280;22748;8.426;99.512;2022-08-19T02:25:00;100719.19;;;31.62;57.11
36798;BME280;22748;8.426;99.512;2022-08-19T02:27:36;100708.38;;;31.62;57.47
36798;BME280;22748;8.426;99.512;2022-08-19T02:30:11;100708.75;;;31.66;58.12
36798;BME280;22748;8.426;99.512;2022-08-19T02:32:44;100711.00;;;31.69;57.49
36798;BME280;22748;8.426;99.512;2022-08-19T02:35:17;100713.72;;;31.69;57.65
36798;BME280;22748;8.426;99.512;2022-08-19T02:37:47;100705.97;;;31.72;57.53
36798;BME280;22748;8.426;99.512;2022-08-19T02:40:32;100706.56;;;31.74;57.43
36798;BME280;22748;8.426;99.512;2022-08-19T02:43:06;100712.81;;;31.75;56.98
36798;BME280;22748;8.426;99.512;2022-08-19T02:45:39;100713.63;;;31.75;57.42
36798;BME280;22748;8.426;99.512;2022-08-19T02:48:11;100713.16;;;31.78;56.77
36798;BME280;22748;8.426;99.512;2022-08-19T02:50:43;100715.03;;;31.78;57.61
36798;BME280;22748;8.426;99.512;2022-08-19T02:53:16;100709.03;;;31.76;57.19
36798;BME280;22748;8.426;99.512;2022-08-19T02:55:49;100709.25;;;31.74;56.89
36798;BME280;22748;8.426;99.512;2022-08-19T02:58:22;100716.94;;;31.77;57.31
36798;BME280;22748;8.426;99.512;2022-08-19T03:00:55;100705.06;;;31.78;57.21
36798;BME280;22748;8.426;99.512;2022-08-19T03:03:30;100707.06;;;31.83;57.00
36798;BME280;22748;8.426;99.512;2022-08-19T03:06:06;100689.84;;;31.84;56.92
36798;BME280;22748;8.426;99.512;2022-08-19T03:08:37;100684.78;;;31.88;56.83
36798;BME280;22748;8.426;99.512;2022-08-19T03:11:10;100684.78;;;31.88;57.20
36798;BME280;22748;8.426;99.512;2022-08-19T03:13:43;100688.09;;;31.90;57.25
36798;BME280;22748;8.426;99.512;2022-08-19T03:16:14;100673.53;;;31.91;57.16
36798;BME280;22748;8.426;99.512;2022-08-19T03:18:46;100684.13;;;31.92;56.47
36798;BME280;22748;8.426;99.512;2022-08-19T03:21:20;100676.59;;;31.94;56.68
36798;BME280;22748;8.426;99.512;2022-08-19T03:23:55;100684.28;;;31.97;56.22
36798;BME280;22748;8.426;99.512;2022-08-19T03:26:29;100677.81;;;31.98;56.13
36798;BME280;22748;8.426;99.512;2022-08-19T03:29:04;100675.97;;;31.99;56.54
36798;BME280;22748;8.426;99.512;2022-08-19T03:31:38;100680.50;;;31.98;56.48
36798;BME280;22748;8.426;99.512;2022-08-19T03:34:09;100679.47;;;32.00;56.08
36798;BME280;22748;8.426;99.512;2022-08-19T03:36:41;100675.50;;;32.02;56.52
36798;BME280;22748;8.426;99.512;2022-08-19T03:39:13;100661.50;;;32.05;55.24
36798;BME280;22748;8.426;99.512;2022-08-19T03:41:48;100657.56;;;32.08;55.55
36798;BME280;22748;8.426;99.512;2022-08-19T03:44:22;100647.69;;;32.13;55.25
36798;BME280;22748;8.426;99.512;2022-08-19T03:46:56;100642.66;;;32.17;55.37
36798;BME280;22748;8.426;99.512;2022-08-19T03:49:28;100651.09;;;32.21;55.40
36798;BME280;22748;8.426;99.512;2022-08-19T03:52:02;100642.31;;;32.25;55.09
36798;BME280;22748;8.426;99.512;2022-08-19T03:54:35;100638.34;;;32.28;54.81
36798;BME280;22748;8.426;99.512;2022-08-19T03:57:09;100630.66;;;32.25;54.38
36798;BME280;22748;8.426;99.512;2022-08-19T03:59:39;100632.44;;;32.31;54.23
36798;BME280;22748;8.426;99.512;2022-08-19T04:02:11;100635.84;;;32.38;54.12
36798;BME280;22748;8.426;99.512;2022-08-19T04:04:43;100631.03;;;32.40;54.15
36798;BME280;22748;8.426;99.512;2022-08-19T04:07:16;100626.00;;;32.44;53.64
36798;BME280;22748;8.426;99.512;2022-08-19T04:09:50;100619.91;;;32.48;54.05
36798;BME280;22748;8.426;99.512;2022-08-19T04:12:22;100616.06;;;32.56;53.86
36798;BME280;22748;8.426;99.512;2022-08-19T04:14:52;100618.66;;;32.63;53.28
36798;BME280;22748;8.426;99.512;2022-08-19T04:17:23;100622.53;;;32.67;52.68
36798;BME280;22748;8.426;99.512;2022-08-19T04:19:52;100615.47;;;32.66;53.33
36798;BME280;22748;8.426;99.512;2022-08-19T04:22:24;100612.31;;;32.69;53.17
36798;BME280;22748;8.426;99.512;2022-08-19T04:24:55;100610.19;;;32.71;53.27
36798;BME280;22748;8.426;99.512;2022-08-19T04:27:27;100602.19;;;32.76;52.86
36798;BME280;22748;8.426;99.512;2022-08-19T04:29:58;100609.69;;;32.86;52.72
36798;BME280;22748;8.426;99.512;2022-08-19T04:32:31;100604.66;;;32.89;52.90
36798;BME280;22748;8.426;99.512;2022-08-19T04:35:05;100605.22;;;32.91;52.33
36798;BME280;22748;8.426;99.512;2022-08-19T04:37:35;100595.47;;;32.90;51.91
36798;BME280;22748;8.426;99.512;2022-08-19T04:40:07;100589.00;;;32.91;52.10
36798;BME280;22748;8.426;99.512;2022-08-19T04:42:53;100587.59;;;32.89;52.65
36798;BME280;22748;8.426;99.512;2022-08-19T04:45:23;100578.41;;;32.90;51.70
36798;BME280;22748;8.426;99.512;2022-08-19T04:47:55;100581.38;;;32.88;52.11
36798;BME280;22748;8.426;99.512;2022-08-19T04:50:27;100577.00;;;32.87;50.83
36798;BME280;22748;8.426;99.512;2022-08-19T04:52:58;100566.78;;;32.89;51.39
36798;BME280;22748;8.426;99.512;2022-08-19T04:55:30;100573.34;;;32.93;51.70
36798;BME280;22748;8.426;99.512;2022-08-19T04:58:01;100569.56;;;32.94;52.02
36798;BME280;22748;8.426;99.512;2022-08-19T05:00:32;100554.19;;;32.95;51.53
36798;BME280;22748;8.426;99.512;2022-08-19T05:03:02;100544.19;;;32.95;51.67
36798;BME280;22748;8.426;99.512;2022-08-19T05:05:32;100544.78;;;32.97;52.00
36798;BME280;22748;8.426;99.512;2022-08-19T05:08:03;100546.16;;;33.00;52.19
36798;BME280;22748;8.426;99.512;2022-08-19T05:10:36;100532.16;;;33.03;52.51
36798;BME280;22748;8.426;99.512;2022-08-19T05:13:08;100533.94;;;33.09;52.43
36798;BME280;22748;8.426;99.512;2022-08-19T05:15:38;100537.59;;;33.15;52.73
36798;BME280;22748;8.426;99.512;2022-08-19T05:18:08;100529.56;;;33.20;53.38
36798;BME280;22748;8.426;99.512;2022-08-19T05:20:53;100520.72;;;33.25;53.24
36798;BME280;22748;8.426;99.512;2022-08-19T05:23:36;100514.56;;;33.29;52.80
36798;BME280;22748;8.426;99.512;2022-08-19T05:26:06;100505.97;;;33.32;52.45
36798;BME280;22748;8.426;99.512;2022-08-19T05:28:40;100508.19;;;33.35;52.89
36798;BME280;22748;8.426;99.512;2022-08-19T05:31:27;100504.50;;;33.42;52.26
36798;BME280;22748;8.426;99.512;2022-08-19T05:33:58;100507.00;;;33.43;52.29
36798;BME280;22748;8.426;99.512;2022-08-19T05:36:35;100496.47;;;33.47;52.89
36798;BME280;22748;8.426;99.512;2022-08-19T05:39:08;100492.22;;;33.51;51.92
36798;BME280;22748;8.426;99.512;2022-08-19T05:41:42;100481.38;;;33.51;52.66
36798;BME280;22748;8.426;99.512;2022-08-19T05:44:16;100486.34;;;33.54;52.86
36798;BME280;22748;8.426;99.512;2022-08-19T05:46:49;100476.66;;;33.58;51.86
36798;BME280;22748;8.426;99.512;2022-08-19T05:49:22;100479.38;;;33.58;52.02
36798;BME280;22748;8.426;99.512;2022-08-19T05:51:54;100467.81;;;33.63;52.58
36798;BME280;22748;8.426;99.512;2022-08-19T05:54:25;100464.38;;;33.67;52.22
36798;BME280;22748;8.426;99.512;2022-08-19T05:56:54;100453.78;;;33.66;52.44
36798;BME280;22748;8.426;99.512;2022-08-19T05:59:26;100451.41;;;33.69;51.44
36798;BME280;22748;8.426;99.512;2022-08-19T06:01:57;100473.09;;;33.69;51.30
36798;BME280;22748;8.426;99.512;2022-08-19T06:04:28;100473.56;;;33.66;51.97
36798;BME280;22748;8.426;99.512;2022-08-19T06:06:59;100464.28;;;33.62;52.46
36798;BME280;22748;8.426;99.512;2022-08-19T06:09:30;100471.72;;;33.55;54.31
36798;BME280;22748;8.426;99.512;2022-08-19T06:12:00;100484.16;;;33.39;56.26
36798;BME280;22748;8.426;99.512;2022-08-19T06:14:35;100487.75;;;33.28;56.55
36798;BME280;22748;8.426;99.512;2022-08-19T06:17:05;100494.59;;;33.18;58.10
36798;BME280;22748;8.426;99.512;2022-08-19T06:19:36;100493.22;;;33.04;58.42
36798;BME280;22748;8.426;99.512;2022-08-19T06:22:09;100496.91;;;32.98;58.77
36798;BME280;22748;8.426;99.512;2022-08-19T06:24:42;100495.50;;;32.95;58.62
36798;BME280;22748;8.426;99.512;2022-08-19T06:27:13;100493.03;;;32.94;58.71
36798;BME280;22748;8.426;99.512;2022-08-19T06:29:46;100496.81;;;32.93;57.82
36798;BME280;22748;8.426;99.512;2022-08-19T06:32:19;100501.84;;;32.89;56.99
36798;BME280;22748;8.426;99.512;2022-08-19T06:34:51;100495.97;;;32.92;57.22
36798;BME280;22748;8.426;99.512;2022-08-19T06:37:22;100478.59;;;32.88;56.32
36798;BME280;22748;8.426;99.512;2022-08-19T06:39:53;100478.59;;;32.88;56.03
36798;BME280;22748;8.426;99.512;2022-08-19T06:42:24;100464.00;;;32.89;55.56
36798;BME280;22748;8.426;99.512;2022-08-19T06:44:56;100460.22;;;32.90;55.97
36798;BME280;22748;8.426;99.512;2022-08-19T06:47:26;100458.78;;;32.99;55.35
36798;BME280;22748;8.426;99.512;2022-08-19T06:50:02;100447.97;;;32.99;54.80
36798;BME280;22748;8.426;99.512;2022-08-19T06:52:35;100446.31;;;32.98;55.03
36798;BME280;22748;8.426;99.512;2022-08-19T06:55:07;100438.44;;;32.97;54.77
36798;BME280;22748;8.426;99.512;2022-08-19T06:57:37;100436.66;;;33.03;54.52
36798;BME280;22748;8.426;99.512;2022-08-19T07:00:10;100420.41;;;33.03;54.06
36798;BME280;22748;8.426;99.512;2022-08-19T07:02:42;100416.41;;;33.05;53.94
36798;BME280;22748;8.426;99.512;2022-08-19T07:05:14;100415.13;;;33.08;53.72
36798;BME280;22748;8.426;99.512;2022-08-19T07:07:46;100411.94;;;33.11;53.53
36798;BME280;22748;8.426;99.512;2022-08-19T07:10:18;100399.00;;;33.13;53.59
36798;BME280;22748;8.426;99.512;2022-08-19T07:12:49;100391.47;;;33.15;53.34
36798;BME280;22748;8.426;99.512;2022-08-19T07:15:22;100383.56;;;33.13;53.83
36798;BME280;22748;8.426;99.512;2022-08-19T07:17:55;100378.97;;;33.14;53.79
36798;BME280;22748;8.426;99.512;2022-08-19T07:20:27;100366.53;;;33.13;53.10
36798;BME280;22748;8.426;99.512;2022-08-19T07:22:58;100365.72;;;33.12;53.50
36798;BME280;22748;8.426;99.512;2022-08-19T07:25:31;100362.28;;;33.17;53.75
36798;BME280;22748;8.426;99.512;2022-08-19T07:28:01;100357.16;;;33.20;53.60
36798;BME280;22748;8.426;99.512;2022-08-19T07:30:35;100354.56;;;33.26;53.50
36798;BME280;22748;8.426;99.512;2022-08-19T07:33:08;100349.97;;;33.26;53.80
36798;BME280;22748;8.426;99.512;2022-08-19T07:35:38;100346.44;;;33.26;53.72
36798;BME280;22748;8.426;99.512;2022-08-19T07:38:12;100342.09;;;33.25;53.72
36798;BME280;22748;8.426;99.512;2022-08-19T07:40:49;100342.44;;;33.28;53.65
36798;BME280;22748;8.426;99.512;2022-08-19T07:43:21;100338.16;;;33.32;53.83
36798;BME280;22748;8.426;99.512;2022-08-19T07:45:56;100348.50;;;33.35;54.16
36798;BME280;22748;8.426;99.512;2022-08-19T07:48:29;100342.59;;;33.38;54.03
36798;BME280;22748;8.426;99.512;2022-08-19T07:51:03;100328.31;;;33.43;53.79
36798;BME280;22748;8.426;99.512;2022-08-19T07:53:37;100334.63;;;33.49;53.82
36798;BME280;22748;8.426;99.512;2022-08-19T07:56:08;100333.06;;;33.53;53.48
36798;BME280;22748;8.426;99.512;2022-08-19T07:58:42;100320.91;;;33.55;53.85
36798;BME280;22748;8.426;99.512;2022-08-19T08:01:18;100317.72;;;33.58;53.68
36798;BME280;22748;8.426;99.512;2022-08-19T08:03:52;100323.13;;;33.58;53.36
36798;BME280;22748;8.426;99.512;2022-08-19T08:06:35;100315.84;;;33.59;53.11
36798;BME280;22748;8.426;99.512;2022-08-19T08:09:23;100316.06;;;33.57;53.43
36798;BME280;22748;8.426;99.512;2022-08-19T08:11:59;100319.94;;;33.62;54.12
36798;BME280;22748;8.426;99.512;2022-08-19T08:14:41;100313.72;;;33.61;53.61
36798;BME280;22748;8.426;99.512;2022-08-19T08:17:20;100309.34;;;33.60;53.37
36798;BME280;22748;8.426;99.512;2022-08-19T08:19:51;100310.78;;;33.63;53.23
36798;BME280;22748;8.426;99.512;2022-08-19T08:22:28;100311.59;;;33.63;53.28
36798;BME280;22748;8.426;99.512;2022-08-19T08:25:13;100308.63;;;33.65;53.45
36798;BME280;22748;8.426;99.512;2022-08-19T08:27:44;100312.41;;;33.64;53.81
36798;BME280;22748;8.426;99.512;2022-08-19T08:30:21;100306.16;;;33.63;53.50
36798;BME280;22748;8.426;99.512;2022-08-19T08:32:55;100309.44;;;33.65;53.51
36798;BME280;22748;8.426;99.512;2022-08-19T08:35:25;100309.44;;;33.65;53.65
36798;BME280;22748;8.426;99.512;2022-08-19T08:37:56;100307.31;;;33.67;53.69
36798;BME280;22748;8.426;99.512;2022-08-19T08:40:33;100311.41;;;33.70;53.63
36798;BME280;22748;8.426;99.512;2022-08-19T08:43:09;100316.00;;;33.69;53.26
36798;BME280;22748;8.426;99.512;2022-08-19T08:45:45;100313.88;;;33.71;53.28
36798;BME280;22748;8.426;99.512;2022-08-19T08:48:23;100306.56;;;33.72;53.10
36798;BME280;22748;8.426;99.512;2022-08-19T08:50:55;100306.88;;;33.75;53.00
36798;BME280;22748;8.426;99.512;2022-08-19T08:53:27;100300.63;;;33.75;52.81
36798;BME280;22748;8.426;99.512;2022-08-19T08:56:01;100288.75;;;33.76;52.44
36798;BME280;22748;8.426;99.512;2022-08-19T08:58:39;100292.25;;;33.76;52.57
36798;BME280;22748;8.426;99.512;2022-08-19T09:01:13;100285.69;;;33.72;52.52
36798;BME280;22748;8.426;99.512;2022-08-19T09:03:44;100287.59;;;33.72;52.27
36798;BME280;22748;8.426;99.512;2022-08-19T09:06:26;100284.56;;;33.68;52.58
36798;BME280;22748;8.426;99.512;2022-08-19T09:09:04;100279.72;;;33.70;52.02
36798;BME280;22748;8.426;99.512;2022-08-19T09:11:46;100273.81;;;33.73;51.55
36798;BME280;22748;8.426;99.512;2022-08-19T09:14:32;100266.75;;;33.72;51.79
36798;BME280;22748;8.426;99.512;2022-08-19T09:17:03;100276.53;;;33.73;51.65
36798;BME280;22748;8.426;99.512;2022-08-19T09:19:49;100258.56;;;33.67;52.19
36798;BME280;22748;8.426;99.512;2022-08-19T09:22:20;100262.66;;;33.70;51.22
36798;BME280;22748;8.426;99.512;2022-08-19T09:24:52;100263.47;;;33.70;51.73
36798;BME280;22748;8.426;99.512;2022-08-19T09:27:27;100258.28;;;33.69;51.98
36798;BME280;22748;8.426;99.512;2022-08-19T09:29:57;100264.28;;;33.71;51.97
36798;BME280;22748;8.426;99.512;2022-08-19T09:32:28;100268.41;;;33.73;51.50
36798;BME280;22748;8.426;99.512;2022-08-19T09:35:02;100268.97;;;33.75;51.45
36798;BME280;22748;8.426;99.512;2022-08-19T09:37:36;100276.00;;;33.76;51.57
36798;BME280;22748;8.426;99.512;2022-08-19T09:40:07;100276.00;;;33.76;51.56
36798;BME280;22748;8.426;99.512;2022-08-19T09:42:42;100265.19;;;33.76;51.84
36798;BME280;22748;8.426;99.512;2022-08-19T09:45:15;100261.94;;;33.79;51.17
36798;BME280;22748;8.426;99.512;2022-08-19T09:47:45;100260.56;;;33.77;51.49
36798;BME280;22748;8.426;99.512;2022-08-19T09:50:17;100268.97;;;33.75;51.59
36798;BME280;22748;8.426;99.512;2022-08-19T09:52:47;100258.13;;;33.75;51.71
36798;BME280;22748;8.426;99.512;2022-08-19T09:55:19;100254.84;;;33.73;51.63
36798;BME280;22748;8.426;99.512;2022-08-19T09:57:54;100255.34;;;33.70;51.73
36798;BME280;22748;8.426;99.512;2022-08-19T10:00:25;100255.34;;;33.70;51.37
36798;BME280;22748;8.426;99.512;2022-08-19T10:02:54;100251.31;;;33.73;51.31
36798;BME280;22748;8.426;99.512;2022-08-19T10:05:29;100245.09;;;33.72;51.23
36798;BME280;22748;8.426;99.512;2022-08-19T10:08:16;100234.25;;;33.72;50.34
36798;BME280;22748;8.426;99.512;2022-08-19T10:10:46;100234.56;;;33.76;50.35
36798;BME280;22748;8.426;99.512;2022-08-19T10:13:21;100234.81;;;33.74;50.59
36798;BME280;22748;8.426;99.512;2022-08-19T10:15:52;100235.06;;;33.73;50.68
36798;BME280;22748;8.426;99.512;2022-08-19T10:18:26;100241.03;;;33.75;50.67
36798;BME280;22748;8.426;99.512;2022-08-19T10:21:04;100239.09;;;33.70;51.16
36798;BME280;22748;8.426;99.512;2022-08-19T10:23:37;100241.31;;;33.73;50.62
36798;BME280;22748;8.426;99.512;2022-08-19T10:26:08;100246.72;;;33.73;50.27
36798;BME280;22748;8.426;99.512;2022-08-19T10:28:38;100255.44;;;33.75;50.47
36798;BME280;22748;8.426;99.512;2022-08-19T10:31:11;100262.97;;;33.73;50.18
36798;BME280;22748;8.426;99.512;2022-08-19T10:33:42;100265.94;;;33.72;50.78
36798;BME280;22748;8.426;99.512;2022-08-19T10:36:19;100265.13;;;33.71;50.49
36798;BME280;22748;8.426;99.512;2022-08-19T10:39:01;100265.13;;;33.71;50.87
36798;BME280;22748;8.426;99.512;2022-08-19T10:41:35;100271.59;;;33.70;50.65
36798;BME280;22748;8.426;99.512;2022-08-19T10:44:08;100271.03;;;33.68;50.93
36798;BME280;22748;8.426;99.512;2022-08-19T10:46:41;100271.03;;;33.68;51.60
36798;BME280;22748;8.426;99.512;2022-08-19T10:49:12;100267.25;;;33.69;51.43
36798;BME280;22748;8.426;99.512;2022-08-19T10:51:45;100264.56;;;33.69;51.47
36798;BME280;22748;8.426;99.512;2022-08-19T10:54:31;100268.06;;;33.70;51.59
36798;BME280;22748;8.426;99.512;2022-08-19T10:57:16;100275.38;;;33.69;51.42
36798;BME280;22748;8.426;99.512;2022-08-19T10:59:51;100278.91;;;33.70;51.55
36798;BME280;22748;8.426;99.512;2022-08-19T11:02:22;100271.34;;;33.72;51.75
36798;BME280;22748;8.426;99.512;2022-08-19T11:04:54;100268.41;;;33.73;51.79
36798;BME280;22748;8.426;99.512;2022-08-19T11:07:26;100271.69;;;33.75;51.59
36798;BME280;22748;8.426;99.512;2022-08-19T11:09:56;100273.81;;;33.73;51.66
36798;BME280;22748;8.426;99.512;2022-08-19T11:12:26;100266.75;;;33.72;51.88
36798;BME280;22748;8.426;99.512;2022-08-19T11:14:56;100270.53;;;33.71;51.30
36798;BME280;22748;8.426;99.512;2022-08-19T11:17:28;100284.31;;;33.70;51.41
36798;BME280;22748;8.426;99.512;2022-08-19T11:19:59;100281.84;;;33.68;51.88
36798;BME280;22748;8.426;99.512;2022-08-19T11:22:35;100276.94;;;33.65;52.10
36798;BME280;22748;8.426;99.512;2022-08-19T11:25:08;100283.69;;;33.63;52.11
36798;BME280;22748;8.426;99.512;2022-08-19T11:27:42;100290.63;;;33.58;52.41
36798;BME280;22748;8.426;99.512;2022-08-19T11:30:14;100303.38;;;33.58;52.43
36798;BME280;22748;8.426;99.512;2022-08-19T11:32:45;100305.75;;;33.54;52.24
36798;BME280;22748;8.426;99.512;2022-08-19T11:35:15;100313.63;;;33.56;52.57
36798;BME280;22748;8.426;99.512;2022-08-19T11:37:57;100321.66;;;33.51;52.47
36798;BME280;22748;8.426;99.512;2022-08-19T11:40:28;100319.44;;;33.48;52.20
36798;BME280;22748;8.426;99.512;2022-08-19T11:43:00;100325.84;;;33.42;52.49
36798;BME280;22748;8.426;99.512;2022-08-19T11:45:31;100331.78;;;33.38;52.81
36798;BME280;22748;8.426;99.512;2022-08-19T11:48:01;100328.97;;;33.33;52.91
36798;BME280;22748;8.426;99.512;2022-08-19T11:50:33;100321.59;;;33.29;52.85
36798;BME280;22748;8.426;99.512;2022-08-19T11:53:04;100335.84;;;33.24;53.08
36798;BME280;22748;8.426;99.512;2022-08-19T11:55:38;100330.09;;;33.20;53.21
36798;BME280;22748;8.426;99.512;2022-08-19T11:58:13;100334.13;;;33.18;53.40
36798;BME280;22748;8.426;99.512;2022-08-19T12:00:43;100333.09;;;33.19;53.25
36798;BME280;22748;8.426;99.512;2022-08-19T12:03:15;100339.53;;;33.18;53.12
36798;BME280;22748;8.426;99.512;2022-08-19T12:05:47;100341.44;;;33.17;53.54
36798;BME280;22748;8.426;99.512;2022-08-19T12:08:21;100348.97;;;33.15;53.60
36798;BME280;22748;8.426;99.512;2022-08-19T12:10:51;100352.41;;;33.11;53.51
36798;BME280;22748;8.426;99.512;2022-08-19T12:13:23;100356.69;;;33.07;53.60
36798;BME280;22748;8.426;99.512;2022-08-19T12:15:55;100361.28;;;33.06;53.73
36798;BME280;22748;8.426;99.512;2022-08-19T12:18:28;100376.09;;;33.04;53.73
36798;BME280;22748;8.426;99.512;2022-08-19T12:20:58;100372.38;;;32.93;54.05
36798;BME280;22748;8.426;99.512;2022-08-19T12:23:32;100372.84;;;32.90;54.13
36798;BME280;22748;8.426;99.512;2022-08-19T12:26:06;100380.38;;;32.88;54.39
36798;BME280;22748;8.426;99.512;2022-08-19T12:28:36;100388.25;;;32.89;54.28
36798;BME280;22748;8.426;99.512;2022-08-19T12:31:08;100404.00;;;32.92;54.12
36798;BME280;22748;8.426;99.512;2022-08-19T12:33:41;100403.75;;;32.94;54.28
36798;BME280;22748;8.426;99.512;2022-08-19T12:36:13;100399.75;;;32.96;53.97
36798;BME280;22748;8.426;99.512;2022-08-19T12:38:49;100406.00;;;32.97;54.02
36798;BME280;22748;8.426;99.512;2022-08-19T12:41:21;100402.22;;;32.98;53.95
36798;BME280;22748;8.426;99.512;2022-08-19T12:43:54;100410.09;;;32.99;54.38
36798;BME280;22748;8.426;99.512;2022-08-19T12:46:28;100422.53;;;33.00;54.30
36798;BME280;22748;8.426;99.512;2022-08-19T12:49:00;100434.75;;;33.03;54.45
36798;BME280;22748;8.426;99.512;2022-08-19T12:51:32;100431.25;;;33.03;54.49
36798;BME280;22748;8.426;99.512;2022-08-19T12:54:03;100443.72;;;33.04;54.85
36798;BME280;22748;8.426;99.512;2022-08-19T12:56:37;100446.66;;;33.02;54.70
36798;BME280;22748;8.426;99.512;2022-08-19T12:59:14;100457.47;;;33.02;55.12
36798;BME280;22748;8.426;99.512;2022-08-19T13:01:45;100457.25;;;33.04;55.18
36798;BME280;22748;8.426;99.512;2022-08-19T13:04:16;100462.66;;;33.04;55.24
36798;BME280;22748;8.426;99.512;2022-08-19T13:06:47;100479.94;;;33.03;55.21
36798;BME280;22748;8.426;99.512;2022-08-19T13:09:25;100481.47;;;32.98;54.96
36798;BME280;22748;8.426;99.512;2022-08-19T13:11:56;100486.66;;;33.00;55.14
36798;BME280;22748;8.426;99.512;2022-08-19T13:14:33;100489.59;;;32.98;55.20
36798;BME280;22748;8.426;99.512;2022-08-19T13:17:03;100495.81;;;32.99;55.35
36798;BME280;22748;8.426;99.512;2022-08-19T13:19:36;100500.09;;;32.95;55.59